createdAt,value
2022-07-29T00:00:00.635Z,115.93
2022-07-29T00:02:28.360Z,123.63
2022-07-29T00:04:55.205Z,129.75
2022-07-29T00:07:21.844Z,125.50
2022-07-29T00:09:50.914Z,130.18
2022-07-29T00:12:26.528Z,122.03
2022-07-29T00:14:57.534Z,111.87
2022-07-29T00:17:25.257Z,110.03
2022-07-29T00:19:52.725Z,117.20
2022-07-29T00:22:20.205Z,106.43
2022-07-29T00:24:49.682Z,119.20
2022-07-29T00:27:16.767Z,109.78
2022-07-29T00:29:43.469Z,95.20
2022-07-29T00:32:10.098Z,88.07
2022-07-29T00:34:55.653Z,77.50
2022-07-29T00:37:22.458Z,70.80
2022-07-29T00:39:49.167Z,61.20
2022-07-29T00:42:15.965Z,61.05
2022-07-29T00:44:42.813Z,69.65
2022-07-29T00:47:11.613Z,65.55
2022-07-29T00:49:40.852Z,65.75
2022-07-29T00:52:09.468Z,66.38
2022-07-29T00:54:39.180Z,67.68
2022-07-29T00:57:11.049Z,73.55
2022-07-29T00:59:37.866Z,69.88
2022-07-29T01:02:04.666Z,73.40
2022-07-29T01:04:32.794Z,75.07
2022-07-29T01:07:01.493Z,80.53
2022-07-29T01:09:40.796Z,80.88
2022-07-29T01:12:20.730Z,91.43
2022-07-29T01:14:49.946Z,95.30
2022-07-29T01:17:28.529Z,105.57
2022-07-29T01:20:00.950Z,112.57
2022-07-29T01:22:37.101Z,129.73
2022-07-29T01:25:11.138Z,131.98
2022-07-29T01:27:53.482Z,137.02
2022-07-29T01:30:23.658Z,140.18
2022-07-29T01:32:55.455Z,144.38
2022-07-29T01:35:29.700Z,141.93
2022-07-29T01:38:09.425Z,143.63
2022-07-29T01:40:48.848Z,143.00
2022-07-29T01:43:22.022Z,152.77
2022-07-29T01:46:02.147Z,154.85
2022-07-29T01:48:38.032Z,161.02
2022-07-29T01:51:30.230Z,162.77
2022-07-29T01:54:08.178Z,169.23
2022-07-29T01:56:37.344Z,166.70
2022-07-29T01:59:07.518Z,168.02
2022-07-29T02:01:35.886Z,164.80
2022-07-29T02:04:08.585Z,170.00
2022-07-29T02:06:38.275Z,166.77
2022-07-29T02:09:06.102Z,166.25
2022-07-29T02:11:36.960Z,164.23
2022-07-29T02:14:06.038Z,170.60
2022-07-29T02:16:34.345Z,169.43
2022-07-29T02:19:03.760Z,163.88
2022-07-29T02:21:33.061Z,164.55
2022-07-29T02:24:02.385Z,164.57
2022-07-29T02:26:31.377Z,165.07
2022-07-29T02:29:00.106Z,166.13
2022-07-29T02:31:33.524Z,161.00
2022-07-29T02:34:02.770Z,151.15
2022-07-29T02:36:30.806Z,146.70
2022-07-29T02:39:01.505Z,148.45
2022-07-29T02:41:45.930Z,143.43
2022-07-29T02:44:17.849Z,147.80
2022-07-29T02:46:52.046Z,139.95
2022-07-29T02:49:43.794Z,135.50
2022-07-29T02:52:13.364Z,135.00
2022-07-29T02:54:43.251Z,131.85
2022-07-29T02:57:22.741Z,124.00
2022-07-29T02:59:52.581Z,115.68
2022-07-29T03:02:20.546Z,118.60
2022-07-29T03:04:50.180Z,106.88
2022-07-29T03:07:19.738Z,103.03
2022-07-29T03:09:46.916Z,93.50
2022-07-29T03:12:14.858Z,92.35
2022-07-29T03:14:42.189Z,84.25
2022-07-29T03:17:10.724Z,87.10
2022-07-29T03:19:37.531Z,88.15
2022-07-29T03:22:04.934Z,84.15
2022-07-29T03:24:36.663Z,79.65
2022-07-29T03:27:04.194Z,83.38
2022-07-29T03:29:33.981Z,80.75
2022-07-29T03:32:03.360Z,75.80
2022-07-29T03:34:31.014Z,72.38
2022-07-29T03:36:57.677Z,70.80
2022-07-29T03:39:30.505Z,64.22
2022-07-29T03:41:59.912Z,69.20
2022-07-29T03:44:28.640Z,66.55
2022-07-29T03:46:58.954Z,64.57
2022-07-29T03:49:27.410Z,62.40
2022-07-29T03:51:54.395Z,58.05
2022-07-29T03:54:21.683Z,49.03
2022-07-29T03:56:51.198Z,52.10
2022-07-29T03:59:20.482Z,49.60
2022-07-29T04:01:47.983Z,44.60
2022-07-29T04:04:15.104Z,46.88
2022-07-29T04:06:43.853Z,39.45
2022-07-29T04:09:11.624Z,49.67
2022-07-29T04:11:59.628Z,52.95
2022-07-29T04:14:27.923Z,55.60
2022-07-29T04:16:54.589Z,57.15
2022-07-29T04:19:21.183Z,64.93
2022-07-29T04:21:47.887Z,77.32
2022-07-29T04:24:15.069Z,97.50
2022-07-29T04:26:41.928Z,100.60
2022-07-29T04:29:08.670Z,108.63
2022-07-29T04:31:35.430Z,109.38
2022-07-29T04:34:02.104Z,105.63
2022-07-29T04:36:29.919Z,114.75
2022-07-29T04:38:57.265Z,117.40
2022-07-29T04:41:23.886Z,112.30
2022-07-29T04:44:01.977Z,124.75
2022-07-29T04:46:28.955Z,125.80
2022-07-29T04:48:55.712Z,138.52
2022-07-29T04:51:22.359Z,154.27
2022-07-29T04:53:48.993Z,159.10
2022-07-29T04:56:15.798Z,149.98
2022-07-29T04:58:42.478Z,158.55
2022-07-29T05:01:09.218Z,165.03
2022-07-29T05:03:35.861Z,174.40
2022-07-29T05:06:02.546Z,184.00
2022-07-29T05:08:29.222Z,186.73
2022-07-29T05:10:55.957Z,182.88
2022-07-29T05:13:22.564Z,195.37
2022-07-29T05:15:49.335Z,185.27
2022-07-29T05:18:16.564Z,188.43
2022-07-29T05:20:43.226Z,191.15
2022-07-29T05:23:10.018Z,195.85
2022-07-29T05:25:44.340Z,187.00
2022-07-29T05:28:12.411Z,179.63
2022-07-29T05:30:39.586Z,164.30
2022-07-29T05:33:06.328Z,149.45
2022-07-29T05:35:33.375Z,149.18
2022-07-29T05:37:59.957Z,138.25
2022-07-29T05:40:26.616Z,108.72
2022-07-29T05:42:53.308Z,104.47
2022-07-29T05:45:19.967Z,113.38
2022-07-29T05:47:46.683Z,101.30
2022-07-29T05:50:13.690Z,103.95
2022-07-29T05:52:40.323Z,99.53
2022-07-29T05:55:07.450Z,99.25
2022-07-29T05:57:34.293Z,98.13
2022-07-29T06:00:01.100Z,93.07
2022-07-29T06:02:27.917Z,84.47
2022-07-29T06:04:54.792Z,97.35
2022-07-29T06:07:24.500Z,94.95
2022-07-29T06:09:51.224Z,93.15
2022-07-29T06:12:17.812Z,89.78
2022-07-29T06:14:44.454Z,84.75
2022-07-29T06:17:12.578Z,84.80
2022-07-29T06:19:41.857Z,80.28
2022-07-29T06:22:08.474Z,74.65
2022-07-29T06:24:38.162Z,72.60
2022-07-29T06:27:04.721Z,66.33
2022-07-29T06:29:31.830Z,60.85
2022-07-29T06:31:58.628Z,55.93
2022-07-29T06:34:25.282Z,48.72
2022-07-29T06:36:53.730Z,50.95
2022-07-29T06:39:21.405Z,55.33
2022-07-29T06:41:50.162Z,47.60
2022-07-29T06:44:18.434Z,39.67
2022-07-29T06:46:45.407Z,36.92
2022-07-29T06:49:13.352Z,40.05
2022-07-29T06:51:40.016Z,40.83
2022-07-29T06:54:06.780Z,38.83
2022-07-29T06:56:38.453Z,38.58
2022-07-29T06:59:07.939Z,28.00
2022-07-29T07:01:34.805Z,24.27
2022-07-29T07:04:01.583Z,14.32
2022-07-29T07:06:30.536Z,12.32
2022-07-29T07:08:57.153Z,9.35
2022-07-29T07:11:23.876Z,11.35
2022-07-29T07:13:50.478Z,11.83
2022-07-29T07:16:17.329Z,10.73
2022-07-29T07:18:46.062Z,12.30
2022-07-29T07:21:18.986Z,8.20
2022-07-29T07:23:46.676Z,5.83
2022-07-29T07:26:13.448Z,7.22
2022-07-29T07:28:40.248Z,6.65
2022-07-29T07:31:07.087Z,8.80
2022-07-29T07:33:33.786Z,6.70
2022-07-29T07:36:02.594Z,6.25
2022-07-29T07:38:29.226Z,6.85
2022-07-29T07:40:56.055Z,6.18
2022-07-29T07:43:23.701Z,6.18
2022-07-29T07:45:55.826Z,7.95
2022-07-29T07:48:26.211Z,4.43
2022-07-29T07:50:52.872Z,5.03
2022-07-29T07:53:19.674Z,6.53
2022-07-29T07:56:09.318Z,5.25
2022-07-29T07:58:33.693Z,6.25
2022-07-29T08:01:00.443Z,4.95
2022-07-29T08:03:27.137Z,7.30
2022-07-29T08:05:55.167Z,6.50
2022-07-29T08:08:22.014Z,6.22
2022-07-29T08:10:54.788Z,6.43
2022-07-29T08:13:23.032Z,5.85
2022-07-29T08:15:58.504Z,5.93
2022-07-29T08:18:26.313Z,7.68
2022-07-29T08:20:53.146Z,5.57
2022-07-29T08:23:20.166Z,5.93
2022-07-29T08:25:46.965Z,5.40
2022-07-29T08:28:17.826Z,7.25
2022-07-29T08:30:44.485Z,3.90
2022-07-29T08:33:11.152Z,4.97
2022-07-29T08:35:39.498Z,6.47
2022-07-29T08:38:06.145Z,6.38
2022-07-29T08:40:32.948Z,5.50
2022-07-29T08:43:06.539Z,4.47
2022-07-29T08:45:48.191Z,6.28
2022-07-29T08:48:23.232Z,6.90
2022-07-29T08:50:57.013Z,3.90
2022-07-29T08:53:27.970Z,4.47
2022-07-29T08:55:55.625Z,6.75
2022-07-29T08:58:24.716Z,5.33
2022-07-29T09:00:56.768Z,5.20
2022-07-29T09:03:29.148Z,4.53
2022-07-29T09:05:56.047Z,4.72
2022-07-29T09:08:24.095Z,4.00
2022-07-29T09:10:51.501Z,5.30
2022-07-29T09:13:18.784Z,4.53
2022-07-29T09:15:45.883Z,3.50
2022-07-29T09:18:20.473Z,6.07
2022-07-29T09:21:16.566Z,5.95
2022-07-29T09:24:10.003Z,5.60
2022-07-29T09:26:39.988Z,6.78
2022-07-29T09:29:18.102Z,5.47
2022-07-29T09:31:47.306Z,5.60
2022-07-29T09:34:17.398Z,4.50
2022-07-29T09:36:46.383Z,4.93
2022-07-29T09:39:14.099Z,6.05
2022-07-29T09:41:55.552Z,4.88
2022-07-29T09:44:24.101Z,3.08
2022-07-29T09:47:09.274Z,4.35
2022-07-29T09:49:50.594Z,5.18
2022-07-29T09:52:17.212Z,7.00
2022-07-29T09:54:43.874Z,5.90
2022-07-29T09:57:30.875Z,4.28
2022-07-29T10:00:07.944Z,4.82
2022-07-29T10:02:44.438Z,5.15
2022-07-29T10:05:18.342Z,5.47
2022-07-29T10:07:54.282Z,4.13
2022-07-29T10:10:23.679Z,4.63
2022-07-29T10:13:01.758Z,4.93
2022-07-29T10:15:38.000Z,4.97
2022-07-29T10:18:05.123Z,9.18
2022-07-29T10:20:31.747Z,5.28
2022-07-29T10:22:58.680Z,3.95
2022-07-29T10:25:26.071Z,5.30
2022-07-29T10:27:54.227Z,5.03
2022-07-29T10:30:22.858Z,4.30
2022-07-29T10:33:18.351Z,4.55
2022-07-29T10:36:06.400Z,4.75
2022-07-29T10:38:36.003Z,6.35
2022-07-29T10:41:43.991Z,6.72
2022-07-29T10:44:22.835Z,5.18
2022-07-29T10:46:52.121Z,5.32
2022-07-29T10:49:31.121Z,5.40
2022-07-29T10:52:02.629Z,4.30
2022-07-29T10:54:47.152Z,5.47
2022-07-29T10:57:14.735Z,4.07
2022-07-29T10:59:43.192Z,5.47
2022-07-29T11:02:42.334Z,3.13
2022-07-29T11:05:19.872Z,3.00
2022-07-29T11:08:20.224Z,4.27
2022-07-29T11:10:49.230Z,5.78
2022-07-29T11:13:46.520Z,3.67
2022-07-29T11:16:16.196Z,5.93
2022-07-29T11:19:14.749Z,5.82
2022-07-29T11:21:53.448Z,4.53
2022-07-29T11:24:29.202Z,4.88
2022-07-29T11:27:23.348Z,6.32
2022-07-29T11:29:58.554Z,3.70
2022-07-29T11:32:36.829Z,7.20
2022-07-29T11:35:19.115Z,2.60
2022-07-29T11:38:23.777Z,3.80
2022-07-29T11:41:23.981Z,4.57
2022-07-29T11:44:01.570Z,2.87
2022-07-29T11:46:47.822Z,4.65
2022-07-29T11:49:19.507Z,5.97
2022-07-29T11:51:57.134Z,4.60
2022-07-29T11:54:33.023Z,5.88
2022-07-29T11:57:07.899Z,7.40
2022-07-29T11:59:45.673Z,4.30
2022-07-29T12:02:37.424Z,3.85
2022-07-29T12:05:00.515Z,6.78
2022-07-29T12:07:39.099Z,6.95
2022-07-29T12:10:11.306Z,4.55
2022-07-29T12:12:53.684Z,5.32
2022-07-29T12:15:24.973Z,5.43
2022-07-29T12:18:18.376Z,3.28
2022-07-29T12:20:45.892Z,2.90
2022-07-29T12:23:13.266Z,6.40
2022-07-29T12:25:42.428Z,4.07
2022-07-29T12:28:14.221Z,4.00
2022-07-29T12:30:52.274Z,3.97
2022-07-29T12:33:19.024Z,6.05
2022-07-29T12:36:03.540Z,5.20
2022-07-29T12:38:37.177Z,5.53
2022-07-29T12:41:04.941Z,5.30
2022-07-29T12:43:32.086Z,4.10
2022-07-29T12:45:58.916Z,6.13
2022-07-29T12:48:42.983Z,5.27
2022-07-29T12:51:12.622Z,6.22
2022-07-29T12:53:42.094Z,7.10
2022-07-29T12:56:41.321Z,7.68
2022-07-29T12:59:21.213Z,6.13
2022-07-29T13:01:51.279Z,6.47
2022-07-29T13:04:37.681Z,5.03
2022-07-29T13:07:09.166Z,8.20
2022-07-29T13:09:39.843Z,4.75
2022-07-29T13:12:11.498Z,6.90
2022-07-29T13:14:41.415Z,5.43
2022-07-29T13:17:24.326Z,4.07
2022-07-29T13:19:54.077Z,7.25
2022-07-29T13:22:22.981Z,5.65
2022-07-29T13:25:04.749Z,4.25
2022-07-29T13:27:35.834Z,6.30
2022-07-29T13:30:04.830Z,4.88
2022-07-29T13:32:32.394Z,4.47
2022-07-29T13:35:05.132Z,5.20
2022-07-29T13:37:35.050Z,6.68
2022-07-29T13:40:04.173Z,5.00
2022-07-29T13:42:31.697Z,4.60
2022-07-29T13:44:58.624Z,4.68
2022-07-29T13:47:32.284Z,6.65
2022-07-29T13:50:05.337Z,9.63
2022-07-29T13:52:33.302Z,4.93
2022-07-29T13:55:00.024Z,5.82
2022-07-29T13:57:26.742Z,5.53
2022-07-29T13:59:54.578Z,5.72
2022-07-29T14:02:25.259Z,4.43
2022-07-29T14:04:53.581Z,4.13
2022-07-29T14:07:20.545Z,4.38
2022-07-29T14:09:47.260Z,5.13
2022-07-29T14:12:14.030Z,6.10
2022-07-29T14:14:40.817Z,3.47
2022-07-29T14:17:07.925Z,9.03
2022-07-29T14:19:41.147Z,5.75
2022-07-29T14:22:09.654Z,4.18
2022-07-29T14:24:38.437Z,5.77
2022-07-29T14:27:06.565Z,4.55
2022-07-29T14:29:37.789Z,5.87
2022-07-29T14:32:10.078Z,7.47
2022-07-29T14:34:38.312Z,4.22
2022-07-29T14:37:06.720Z,4.05
2022-07-29T14:39:38.178Z,6.53
2022-07-29T14:42:09.621Z,6.18
2022-07-29T14:44:38.353Z,7.22
2022-07-29T14:47:07.852Z,7.63
2022-07-29T14:49:35.480Z,3.75
2022-07-29T14:52:02.174Z,4.70
2022-07-29T14:54:29.074Z,5.82
2022-07-29T14:56:58.135Z,6.57
2022-07-29T14:59:25.500Z,7.72
2022-07-29T15:01:52.330Z,6.53
2022-07-29T15:04:18.988Z,5.43
2022-07-29T15:06:45.702Z,5.50
2022-07-29T15:09:12.811Z,5.47
2022-07-29T15:11:39.680Z,4.20
2022-07-29T15:14:07.043Z,8.07
2022-07-29T15:16:36.474Z,5.30
2022-07-29T15:19:03.803Z,8.20
2022-07-29T15:21:30.537Z,6.03
2022-07-29T15:23:57.302Z,4.90
2022-07-29T15:26:23.989Z,9.13
2022-07-29T15:28:50.577Z,5.45
2022-07-29T15:31:17.330Z,8.05
2022-07-29T15:33:43.974Z,5.85
2022-07-29T15:36:25.495Z,6.40
2022-07-29T15:38:59.315Z,6.43
2022-07-29T15:41:26.057Z,7.95
2022-07-29T15:43:52.654Z,4.57
2022-07-29T15:46:38.608Z,4.65
2022-07-29T15:49:08.367Z,3.78
2022-07-29T15:51:35.414Z,4.35
2022-07-29T15:54:03.623Z,6.80
2022-07-29T15:56:30.676Z,6.45
2022-07-29T15:58:57.823Z,5.65
2022-07-29T16:01:25.119Z,5.93
2022-07-29T16:03:52.000Z,6.22
2022-07-29T16:06:19.267Z,6.05
2022-07-29T16:08:45.876Z,7.03
2022-07-29T16:11:12.511Z,7.45
2022-07-29T16:13:39.142Z,6.70
2022-07-29T16:16:08.766Z,6.07
2022-07-29T16:18:47.204Z,4.82
2022-07-29T16:21:14.437Z,5.53
2022-07-29T16:23:41.434Z,5.60
2022-07-29T16:26:08.221Z,4.40
2022-07-29T16:28:35.000Z,5.63
2022-07-29T16:31:03.071Z,5.47
2022-07-29T16:33:54.379Z,4.88
2022-07-29T16:36:18.505Z,5.32
2022-07-29T16:38:47.372Z,5.30
2022-07-29T16:41:14.484Z,5.18
2022-07-29T16:43:42.330Z,4.47
2022-07-29T16:46:13.145Z,5.35
2022-07-29T16:48:45.508Z,6.73
2022-07-29T16:51:14.435Z,4.20
2022-07-29T16:53:44.522Z,6.25
2022-07-29T16:56:12.689Z,6.93
2022-07-29T16:58:43.545Z,4.95
2022-07-29T17:01:11.093Z,4.18
2022-07-29T17:04:00.198Z,4.60
2022-07-29T17:06:29.921Z,4.70
2022-07-29T17:08:56.983Z,5.13
2022-07-29T17:11:53.020Z,7.53
2022-07-29T17:14:10.635Z,5.88
2022-07-29T17:16:37.422Z,4.22
2022-07-29T17:19:04.451Z,6.30
2022-07-29T17:21:31.221Z,4.65
2022-07-29T17:23:59.265Z,7.50
2022-07-29T17:26:27.475Z,5.28
2022-07-29T17:28:55.603Z,6.15
2022-07-29T17:31:23.537Z,5.45
2022-07-29T17:33:50.725Z,4.93
2022-07-29T17:36:29.612Z,6.57
2022-07-29T17:38:59.040Z,4.47
2022-07-29T17:41:25.957Z,6.20
2022-07-29T17:43:53.412Z,4.65
2022-07-29T17:46:22.199Z,4.55
2022-07-29T17:48:49.382Z,4.73
2022-07-29T17:51:16.324Z,4.70
2022-07-29T17:53:43.008Z,4.50
2022-07-29T17:56:09.777Z,7.70
2022-07-29T17:58:36.554Z,5.57
2022-07-29T18:01:04.028Z,5.65
2022-07-29T18:03:30.928Z,9.60
2022-07-29T18:06:00.724Z,5.00
2022-07-29T18:08:28.108Z,5.28
2022-07-29T18:10:55.868Z,3.70
2022-07-29T18:13:22.504Z,6.85
2022-07-29T18:15:49.634Z,5.67
2022-07-29T18:18:18.244Z,3.05
2022-07-29T18:20:45.671Z,4.40
2022-07-29T18:23:12.948Z,5.20
2022-07-29T18:25:40.127Z,7.28
2022-07-29T18:28:07.253Z,4.32
2022-07-29T18:30:34.517Z,5.28
2022-07-29T18:35:49.493Z,7.88
2022-07-29T18:38:16.263Z,6.60
2022-07-29T18:40:44.492Z,7.35
2022-07-29T18:43:11.839Z,5.70
2022-07-29T18:45:39.572Z,5.63
2022-07-29T18:48:12.949Z,5.13
2022-07-29T18:50:41.201Z,7.07
2022-07-29T18:53:08.257Z,7.32
2022-07-29T18:55:34.857Z,4.93
2022-07-29T18:58:01.505Z,7.13
2022-07-29T19:00:28.584Z,5.35
2022-07-29T19:02:56.786Z,4.82
2022-07-29T19:05:24.017Z,5.68
2022-07-29T19:07:50.938Z,5.57
2022-07-29T19:10:17.748Z,4.80
2022-07-29T19:12:44.416Z,7.65
2022-07-29T19:15:11.385Z,3.75
2022-07-29T19:17:38.780Z,6.35
2022-07-29T19:20:07.295Z,8.10
2022-07-29T19:22:34.394Z,6.50
2022-07-29T19:25:01.088Z,6.28
2022-07-29T19:27:27.723Z,3.78
2022-07-29T19:29:58.995Z,6.68
2022-07-29T19:32:26.393Z,7.17
2022-07-29T19:35:11.848Z,5.03
2022-07-29T19:37:38.509Z,6.05
2022-07-29T19:40:06.889Z,6.63
2022-07-29T19:42:34.039Z,4.88
2022-07-29T19:45:00.947Z,5.47
2022-07-29T19:47:27.525Z,4.45
2022-07-29T19:49:54.183Z,4.57
2022-07-29T19:52:20.802Z,6.10
2022-07-29T19:54:47.555Z,6.43
2022-07-29T19:57:14.351Z,5.43
2022-07-29T19:59:41.342Z,8.82
2022-07-29T20:02:10.782Z,4.70
2022-07-29T20:04:38.472Z,7.55
2022-07-29T20:07:05.481Z,6.10
2022-07-29T20:09:32.386Z,6.17
2022-07-29T20:11:59.358Z,4.82
2022-07-29T20:14:25.993Z,6.50
2022-07-29T20:16:54.301Z,4.90
2022-07-29T20:19:20.983Z,5.37
2022-07-29T20:21:47.796Z,5.32
2022-07-29T20:24:14.485Z,4.93
2022-07-29T20:26:41.182Z,7.07
2022-07-29T20:29:07.851Z,4.55
2022-07-29T20:31:35.597Z,5.80
2022-07-29T20:34:02.260Z,4.93
2022-07-29T20:36:28.955Z,5.72
2022-07-29T20:38:55.937Z,6.35
2022-07-29T20:41:23.409Z,6.40
2022-07-29T20:43:50.292Z,5.32
2022-07-29T20:46:17.896Z,4.78
2022-07-29T20:48:47.220Z,6.18
2022-07-29T20:51:14.464Z,7.40
2022-07-29T20:53:41.666Z,6.82
2022-07-29T20:56:08.513Z,5.57
2022-07-29T20:58:36.293Z,7.20
2022-07-29T21:01:03.220Z,7.15
2022-07-29T21:03:30.088Z,9.90
2022-07-29T21:05:56.684Z,17.48
2022-07-29T21:08:23.374Z,23.70
2022-07-29T21:10:50.238Z,40.05
2022-07-29T21:13:17.070Z,64.57
2022-07-29T21:15:46.337Z,84.63
2022-07-29T21:18:31.915Z,115.22
2022-07-29T21:21:01.051Z,139.45
2022-07-29T21:23:28.174Z,172.50
2022-07-29T21:25:55.060Z,183.55
2022-07-29T21:28:29.327Z,201.70
2022-07-29T21:31:00.882Z,225.30
2022-07-29T21:33:29.570Z,225.98
2022-07-29T21:36:16.006Z,223.77
2022-07-29T21:38:43.482Z,238.88
2022-07-29T21:41:12.531Z,232.85
2022-07-29T21:43:41.771Z,239.43
2022-07-29T21:46:09.244Z,241.03
2022-07-29T21:48:36.158Z,236.48
2022-07-29T21:51:02.855Z,234.68
2022-07-29T21:53:30.682Z,243.95
2022-07-29T21:55:58.238Z,241.00
2022-07-29T21:58:26.008Z,237.95
2022-07-29T22:00:52.757Z,236.30
2022-07-29T22:03:19.409Z,240.20
2022-07-29T22:05:46.073Z,239.80
2022-07-29T22:08:13.434Z,240.17
2022-07-29T22:10:40.302Z,236.65
2022-07-29T22:13:07.103Z,246.88
2022-07-29T22:15:33.732Z,240.55
2022-07-29T22:18:00.589Z,239.55
2022-07-29T22:20:27.509Z,252.57
2022-07-29T22:22:54.859Z,248.90
2022-07-29T22:25:22.166Z,252.30
2022-07-29T22:27:49.584Z,261.53
2022-07-29T22:30:17.385Z,263.92
2022-07-29T22:32:44.178Z,258.13
2022-07-29T22:35:11.258Z,256.98
2022-07-29T22:37:41.016Z,263.42
2022-07-29T22:40:08.386Z,260.38
2022-07-29T22:42:35.484Z,259.97
2022-07-29T22:45:02.767Z,255.63
2022-07-29T22:47:39.005Z,257.35
2022-07-29T22:50:14.656Z,254.23
2022-07-29T22:52:41.527Z,262.48
2022-07-29T22:55:08.655Z,260.73
2022-07-29T22:57:35.335Z,255.47
2022-07-29T23:00:02.475Z,259.13
2022-07-29T23:02:29.449Z,273.50
2022-07-29T23:04:56.619Z,266.38
2022-07-29T23:07:23.453Z,261.23
2022-07-29T23:09:50.227Z,266.45
2022-07-29T23:12:17.561Z,259.08
2022-07-29T23:14:44.229Z,262.30
2022-07-29T23:17:10.948Z,259.92
2022-07-29T23:19:37.576Z,259.50
2022-07-29T23:22:04.784Z,272.27
2022-07-29T23:24:31.469Z,261.77
2022-07-29T23:26:58.386Z,258.63
2022-07-29T23:29:26.044Z,259.45
2022-07-29T23:31:52.599Z,254.70
2022-07-29T23:34:22.092Z,262.60
2022-07-29T23:36:48.791Z,265.48
2022-07-29T23:39:15.496Z,265.50
2022-07-29T23:41:42.675Z,269.13
2022-07-29T23:44:09.482Z,262.55
2022-07-29T23:46:36.112Z,262.65
2022-07-29T23:49:02.873Z,261.20
2022-07-29T23:51:29.679Z,264.20
2022-07-29T23:53:56.820Z,264.67
2022-07-29T23:56:23.596Z,268.73
2022-07-29T23:58:50.300Z,272.45
